Time;durP1;ratioP1;P1;durP2;ratioP2;P2;SDS_P1;SDS_P2;PMS_P1;PMS_P2;Temp;Humidity;BMP_temperature;BMP_pressure;BME280_temperature;BME280_humidity;BME280_pressure;Samples;Min_cycle;Max_cycle;Signal;HPM_P1;HPM_P2
2024/04/03 00:00:38;;;;;;;8.90;3.17;;;9.20;99.90;;;;;;4984272;28;20050;-63
2024/04/03 00:03:04;;;;;;;8.73;3.08;;;9.10;99.90;;;;;;4995130;28;20034;-63
2024/04/03 00:05:30;;;;;;;12.00;4.03;;;9.10;99.90;;;;;;4997221;28;20500;-63
2024/04/03 00:07:56;;;;;;;11.63;3.28;;;9.00;99.90;;;;;;4996271;28;20100;-63
2024/04/03 00:10:22;;;;;;;8.32;3.38;;;9.00;99.90;;;;;;4994039;28;20052;-63
2024/04/03 00:12:47;;;;;;;16.83;4.60;;;8.90;99.90;;;;;;4993995;28;20511;-63
2024/04/03 00:15:13;;;;;;;16.15;4.68;;;8.90;99.90;;;;;;5000457;28;20038;-63
2024/04/03 00:17:39;;;;;;;12.23;4.60;;;8.90;99.90;;;;;;4991877;28;20038;-63
2024/04/03 00:20:05;;;;;;;12.25;4.28;;;8.80;99.90;;;;;;4991440;28;20438;-63
2024/04/03 00:22:31;;;;;;;11.68;3.65;;;8.80;99.90;;;;;;5001550;28;20487;-63
2024/04/03 00:24:57;;;;;;;13.95;4.20;;;8.70;99.90;;;;;;4996630;28;20052;-63
2024/04/03 00:27:23;;;;;;;19.58;4.97;;;8.70;99.90;;;;;;4991964;28;20115;-63
2024/04/03 00:29:49;;;;;;;18.85;4.72;;;8.70;99.90;;;;;;4995884;28;20049;-63
2024/04/03 00:32:15;;;;;;;15.38;4.25;;;8.60;99.90;;;;;;4998554;28;20046;-63
2024/04/03 00:34:41;;;;;;;19.27;5.10;;;8.60;99.90;;;;;;5005696;28;20045;-63
2024/04/03 00:37:07;;;;;;;17.45;4.57;;;8.50;99.90;;;;;;4996611;28;20041;-63
2024/04/03 00:39:34;;;;;;;16.60;3.72;;;8.50;99.90;;;;;;5004411;28;20104;-63
2024/04/03 00:41:59;;;;;;;12.40;3.50;;;8.50;99.90;;;;;;5001483;28;20069;-63
2024/04/03 00:44:25;;;;;;;17.88;4.18;;;8.50;99.90;;;;;;4997314;28;20050;-63
2024/04/03 00:46:52;;;;;;;16.23;4.97;;;8.50;99.90;;;;;;4995795;28;20054;-63
2024/04/03 00:49:20;;;;;;;19.35;4.78;;;8.50;99.90;;;;;;4999410;28;20040;-63
2024/04/03 00:51:48;;;;;;;16.50;4.38;;;8.40;99.90;;;;;;5003997;28;20042;-64
2024/04/03 00:54:15;;;;;;;15.48;4.70;;;8.40;99.90;;;;;;5003465;28;20057;-63
2024/04/03 00:56:42;;;;;;;13.60;4.10;;;8.30;99.90;;;;;;4998161;28;20046;-64
2024/04/03 00:59:07;;;;;;;13.02;4.72;;;8.30;99.90;;;;;;5005118;28;20069;-63
2024/04/03 01:01:33;;;;;;;13.40;5.15;;;8.30;99.90;;;;;;5000893;28;20108;-64
2024/04/03 01:03:59;;;;;;;17.20;5.32;;;8.40;99.90;;;;;;4993168;28;20563;-63
2024/04/03 01:06:24;;;;;;;13.70;5.30;;;8.40;99.90;;;;;;5004052;28;20116;-63
2024/04/03 01:08:50;;;;;;;14.25;4.88;;;8.40;99.90;;;;;;4996845;28;20100;-63
2024/04/03 01:11:17;;;;;;;22.27;5.30;;;8.50;99.90;;;;;;4999052;28;20045;-64
2024/04/03 01:13:43;;;;;;;23.63;5.35;;;8.50;99.90;;;;;;5000529;28;20053;-63
2024/04/03 01:16:09;;;;;;;15.48;4.85;;;8.40;99.90;;;;;;4993638;28;20042;-63
2024/04/03 01:18:35;;;;;;;19.67;5.35;;;8.40;99.90;;;;;;5002421;28;20042;-63
2024/04/03 01:21:01;;;;;;;18.80;4.55;;;8.40;99.90;;;;;;5003636;28;20077;-63
2024/04/03 01:23:27;;;;;;;19.70;5.57;;;8.50;99.90;;;;;;4990840;28;20537;-63
2024/04/03 01:25:53;;;;;;;15.15;5.72;;;8.40;99.90;;;;;;5003502;28;20046;-63
2024/04/03 01:28:20;;;;;;;12.70;5.03;;;8.50;99.90;;;;;;4990041;28;20113;-63
2024/04/03 01:30:46;;;;;;;20.60;6.35;;;8.60;99.90;;;;;;5004854;28;20037;-63
2024/04/03 01:33:11;;;;;;;21.02;6.25;;;8.60;99.90;;;;;;4994276;28;20079;-63
2024/04/03 01:35:37;;;;;;;12.48;5.35;;;8.60;99.90;;;;;;5003197;28;20484;-63
2024/04/03 01:38:03;;;;;;;20.13;5.65;;;8.60;99.90;;;;;;5003547;28;20124;-63
2024/04/03 01:40:29;;;;;;;11.20;5.35;;;8.60;99.90;;;;;;4996318;28;20129;-63
2024/04/03 01:42:54;;;;;;;16.25;5.25;;;8.70;99.90;;;;;;4994658;28;20085;-63
2024/04/03 01:45:20;;;;;;;17.45;6.15;;;8.70;99.90;;;;;;5000255;28;20575;-63
2024/04/03 01:47:47;;;;;;;13.98;6.03;;;8.70;99.90;;;;;;4997821;28;20125;-63
2024/04/03 01:50:19;;;;;;;15.93;5.68;;;8.70;99.90;;;;;;5002624;28;20451;-63
2024/04/03 01:52:45;;;;;;;21.60;6.22;;;8.70;99.90;;;;;;5000461;28;20087;-63
2024/04/03 01:55:10;;;;;;;20.48;5.30;;;8.70;99.90;;;;;;5001487;28;20594;-63
2024/04/03 01:57:36;;;;;;;13.52;5.63;;;8.70;99.90;;;;;;5002876;28;20077;-63
2024/04/03 02:00:02;;;;;;;10.70;5.65;;;8.70;99.90;;;;;;4997336;28;20483;-63
2024/04/03 02:02:28;;;;;;;20.13;6.90;;;8.70;99.90;;;;;;4996576;28;20416;-63
2024/04/03 02:04:54;;;;;;;22.13;5.68;;;8.70;99.90;;;;;;5004226;28;20042;-63
2024/04/03 02:07:20;;;;;;;22.45;6.03;;;8.70;99.90;;;;;;4989525;28;20045;-63
2024/04/03 02:09:46;;;;;;;15.55;5.72;;;8.70;99.90;;;;;;5001202;28;20052;-63
2024/04/03 02:12:11;;;;;;;18.50;6.10;;;8.70;99.90;;;;;;4992847;28;20046;-63
2024/04/03 02:14:37;;;;;;;21.65;6.10;;;8.70;99.90;;;;;;5001138;28;20050;-63
2024/04/03 02:17:04;;;;;;;14.75;5.85;;;8.70;99.90;;;;;;5003035;28;20128;-63
2024/04/03 02:19:30;;;;;;;24.23;6.53;;;8.70;99.90;;;;;;4999665;28;20506;-63
2024/04/03 02:21:55;;;;;;;16.63;5.57;;;8.70;99.90;;;;;;5000323;28;20410;-63
2024/04/03 02:24:21;;;;;;;15.43;4.97;;;8.60;99.90;;;;;;4993535;28;20042;-64
2024/04/03 02:26:47;;;;;;;21.90;5.70;;;8.60;99.90;;;;;;4997557;28;20051;-63
2024/04/03 02:29:15;;;;;;;12.60;5.82;;;8.60;99.90;;;;;;4998886;28;20046;-63
2024/04/03 02:31:41;;;;;;;11.70;5.20;;;8.50;99.90;;;;;;5002945;28;20092;-63
2024/04/03 02:34:08;;;;;;;11.70;5.57;;;8.60;99.90;;;;;;4991214;28;20504;-64
2024/04/03 02:36:34;;;;;;;13.88;4.95;;;8.60;99.90;;;;;;4998068;28;20141;-63
2024/04/03 02:38:59;;;;;;;11.68;5.03;;;8.60;99.90;;;;;;4999079;28;20057;-63
2024/04/03 02:41:25;;;;;;;14.68;4.80;;;8.60;99.90;;;;;;4997651;28;20047;-63
2024/04/03 02:43:51;;;;;;;10.45;4.95;;;8.60;99.90;;;;;;5001847;28;20049;-63
2024/04/03 02:46:17;;;;;;;11.23;5.55;;;8.50;99.90;;;;;;5002027;28;20053;-63
2024/04/03 02:48:43;;;;;;;10.95;5.68;;;8.60;99.90;;;;;;4993687;28;20077;-63
2024/04/03 02:51:10;;;;;;;10.50;4.93;;;8.60;99.90;;;;;;5001939;28;20076;-63
2024/04/03 02:53:36;;;;;;;18.48;5.60;;;8.50;99.90;;;;;;4997575;28;20564;-63
2024/04/03 02:56:06;;;;;;;11.80;5.40;;;8.50;99.90;;;;;;5003402;28;20725;-63
2024/04/03 02:58:36;;;;;;;9.98;4.55;;;8.50;99.90;;;;;;4999617;28;20045;-63
2024/04/03 03:01:02;;;;;;;16.25;4.88;;;8.50;99.90;;;;;;4996392;28;20392;-63
2024/04/03 03:03:31;;;;;;;15.70;4.53;;;8.60;99.90;;;;;;4990098;28;20111;-63
2024/04/03 03:05:58;;;;;;;15.52;4.70;;;8.60;99.90;;;;;;4999059;28;20364;-63
2024/04/03 03:08:28;;;;;;;14.43;4.40;;;8.70;99.90;;;;;;5003166;28;20053;-63
2024/04/03 03:10:54;;;;;;;12.32;4.68;;;8.70;99.90;;;;;;4999154;28;20372;-63
2024/04/03 03:13:21;;;;;;;16.90;5.30;;;8.60;99.90;;;;;;4976416;28;20082;-64
2024/04/03 03:15:58;;;;;;;12.55;4.88;;;8.60;99.90;;;;;;4994215;28;20084;-63
2024/04/03 03:18:31;;;;;;;13.25;4.85;;;8.60;99.90;;;;;;5003236;28;20511;-64
2024/04/03 03:20:57;;;;;;;10.07;4.57;;;8.60;99.90;;;;;;4999524;28;20052;-63
2024/04/03 03:23:23;;;;;;;11.63;5.03;;;8.60;99.90;;;;;;4991492;28;20404;-63
2024/04/03 03:25:53;;;;;;;18.83;5.57;;;8.60;99.90;;;;;;4997778;28;20376;-64
2024/04/03 03:28:20;;;;;;;10.05;4.30;;;8.60;99.90;;;;;;5001544;28;20349;-64
2024/04/03 03:30:47;;;;;;;15.43;5.05;;;8.60;99.90;;;;;;4996678;28;20046;-64
2024/04/03 03:33:13;;;;;;;10.15;4.88;;;8.60;99.90;;;;;;4998570;28;20037;-64
2024/04/03 03:35:39;;;;;;;13.50;5.57;;;8.60;99.90;;;;;;4983690;28;20432;-65
2024/04/03 03:38:05;;;;;;;12.77;4.95;;;8.60;99.90;;;;;;4993749;28;20069;-64
2024/04/03 03:40:32;;;;;;;12.90;5.18;;;8.70;99.90;;;;;;4998604;28;20049;-64
2024/04/03 03:42:58;;;;;;;11.80;5.05;;;8.60;99.90;;;;;;4995073;28;20069;-65
2024/04/03 03:45:23;;;;;;;13.15;5.28;;;8.70;99.90;;;;;;4996841;28;20100;-65
2024/04/03 03:47:49;;;;;;;15.68;4.97;;;8.70;99.90;;;;;;4994734;28;20078;-65
2024/04/03 03:53:00;;;;;;;16.13;5.22;;;8.70;99.90;;;;;;4999964;28;20511;-65
2024/04/03 03:55:30;;;;;;;15.73;5.28;;;8.80;99.90;;;;;;4992787;28;20077;-64
2024/04/03 03:57:57;;;;;;;24.00;4.65;;;8.70;99.90;;;;;;4988869;28;20121;-65
2024/04/03 04:00:23;;;;;;;17.90;4.85;;;8.70;99.90;;;;;;4997881;28;20537;-65
2024/04/03 04:02:50;;;;;;;17.58;5.60;;;8.70;99.90;;;;;;4996819;28;20042;-65
2024/04/03 04:05:17;;;;;;;16.73;5.38;;;8.70;99.90;;;;;;4977178;28;20041;-65
2024/04/03 04:07:44;;;;;;;21.23;5.65;;;8.70;99.90;;;;;;4995757;28;20103;-65
2024/04/03 04:10:10;;;;;;;12.98;5.28;;;8.60;99.90;;;;;;4996477;28;20057;-65
2024/04/03 04:12:35;;;;;;;23.67;5.18;;;8.70;99.90;;;;;;5002955;28;20042;-65
2024/04/03 04:15:02;;;;;;;24.80;4.93;;;8.70;99.90;;;;;;4985406;28;20570;-65
2024/04/03 04:17:28;;;;;;;19.38;4.80;;;8.70;99.90;;;;;;5000691;28;20536;-65
2024/04/03 04:19:54;;;;;;;16.27;5.07;;;8.70;99.90;;;;;;4996125;28;20049;-64
2024/04/03 04:22:19;;;;;;;21.95;5.80;;;8.60;99.90;;;;;;4998501;28;20505;-65
2024/04/03 04:24:46;;;;;;;11.05;4.20;;;8.70;99.90;;;;;;4996296;28;20451;-65
2024/04/03 04:27:12;;;;;;;15.38;4.70;;;8.70;99.90;;;;;;4989366;28;20536;-65
2024/04/03 04:29:42;;;;;;;20.38;5.25;;;8.70;99.90;;;;;;4999892;28;20128;-64
2024/04/03 04:32:11;;;;;;;17.43;5.77;;;8.70;99.90;;;;;;4998389;28;20192;-64
2024/04/03 04:34:40;;;;;;;13.60;5.15;;;8.70;99.90;;;;;;4998289;28;20050;-65
2024/04/03 04:37:07;;;;;;;16.52;3.95;;;8.60;99.90;;;;;;5005045;28;20049;-65
2024/04/03 04:39:33;;;;;;;12.50;4.57;;;8.60;99.90;;;;;;5004423;28;20041;-64
2024/04/03 04:41:58;;;;;;;12.43;4.40;;;8.60;99.90;;;;;;5002824;28;20674;-64
2024/04/03 04:44:24;;;;;;;13.85;4.15;;;8.60;99.90;;;;;;4996550;28;20129;-65
2024/04/03 04:46:56;;;;;;;11.02;4.20;;;8.50;99.90;;;;;;4998286;28;20042;-64
2024/04/03 04:49:23;;;;;;;10.52;4.07;;;8.60;99.90;;;;;;4992090;28;20561;-65
2024/04/03 04:51:49;;;;;;;16.50;4.80;;;8.60;99.90;;;;;;5001782;28;20124;-64
2024/04/03 04:54:16;;;;;;;20.42;4.53;;;8.50;99.90;;;;;;4997201;28;20547;-64
2024/04/03 04:56:45;;;;;;;18.13;4.53;;;8.50;99.90;;;;;;5001546;28;20471;-64
2024/04/03 04:59:14;;;;;;;16.98;5.38;;;8.50;99.90;;;;;;5002067;28;20053;-64
2024/04/03 05:01:42;;;;;;;13.23;4.70;;;8.50;99.90;;;;;;4996329;28;20594;-64
2024/04/03 05:04:10;;;;;;;17.52;4.38;;;8.50;99.90;;;;;;4992929;28;20065;-64
2024/04/03 05:06:37;;;;;;;11.95;3.88;;;8.50;99.90;;;;;;4996563;28;20049;-64
2024/04/03 05:09:03;;;;;;;18.27;4.22;;;8.50;99.90;;;;;;4991601;28;20040;-64
2024/04/03 05:11:29;;;;;;;17.75;4.35;;;8.50;99.90;;;;;;5002659;28;20034;-64
2024/04/03 05:13:55;;;;;;;21.63;4.43;;;8.60;99.90;;;;;;4997364;28;20496;-65
2024/04/03 05:16:21;;;;;;;14.00;3.95;;;8.50;99.90;;;;;;5000992;28;20096;-64
2024/04/03 05:18:49;;;;;;;12.90;3.75;;;8.60;99.90;;;;;;4995015;28;20645;-64
2024/04/03 05:21:16;;;;;;;15.27;3.97;;;8.40;99.90;;;;;;5000042;28;20034;-65
2024/04/03 05:23:43;;;;;;;17.58;4.18;;;8.50;99.90;;;;;;4997264;28;20622;-64
2024/04/03 05:26:14;;;;;;;16.30;4.13;;;8.60;99.90;;;;;;4993829;28;20041;-64
2024/04/03 05:28:40;;;;;;;10.70;4.60;;;8.50;99.90;;;;;;4998748;28;20042;-64
2024/04/03 05:31:15;;;;;;;14.80;3.92;;;8.50;99.90;;;;;;5002943;28;20435;-64
2024/04/03 05:33:41;;;;;;;15.15;4.13;;;8.50;99.90;;;;;;4993375;28;20050;-64
2024/04/03 05:36:08;;;;;;;18.83;3.72;;;8.60;99.90;;;;;;5004064;28;20058;-64
2024/04/03 05:38:34;;;;;;;11.68;3.90;;;8.60;99.90;;;;;;4998265;28;20056;-64
2024/04/03 05:41:00;;;;;;;17.08;4.47;;;8.50;99.90;;;;;;5001071;28;20053;-64
2024/04/03 05:43:27;;;;;;;12.30;4.45;;;8.60;99.90;;;;;;4987155;28;20704;-64
2024/04/03 05:45:55;;;;;;;15.23;3.70;;;8.60;99.90;;;;;;5000093;28;20046;-63
2024/04/03 05:48:22;;;;;;;21.08;4.32;;;8.60;99.90;;;;;;4997421;28;20038;-63
2024/04/03 05:51:04;;;;;;;13.60;3.92;;;8.60;99.90;;;;;;4999657;28;20050;-63
2024/04/03 05:53:31;;;;;;;15.55;3.67;;;8.60;99.90;;;;;;5002588;28;20048;-64
2024/04/03 05:56:02;;;;;;;19.50;3.83;;;8.50;99.90;;;;;;4995837;28;20074;-63
2024/04/03 05:58:28;;;;;;;18.35;3.72;;;8.50;99.90;;;;;;4996594;28;20045;-64
2024/04/03 06:00:56;;;;;;;18.30;3.65;;;8.60;99.90;;;;;;5003224;28;20510;-63
2024/04/03 06:03:22;;;;;;;13.50;3.63;;;8.60;99.90;;;;;;5003925;28;20037;-63
2024/04/03 06:05:57;;;;;;;12.13;3.55;;;8.60;99.90;;;;;;5002995;28;20395;-63
2024/04/03 06:08:23;;;;;;;24.23;4.65;;;8.60;99.90;;;;;;4997981;28;20647;-64
2024/04/03 06:10:49;;;;;;;13.63;3.88;;;8.60;99.90;;;;;;4993240;28;20121;-63
2024/04/03 06:13:15;;;;;;;19.35;4.00;;;8.70;99.90;;;;;;4998196;28;20050;-64
2024/04/03 06:15:41;;;;;;;15.52;4.03;;;8.60;99.90;;;;;;4991696;28;20072;-64
2024/04/03 06:18:07;;;;;;;16.00;3.83;;;8.70;99.90;;;;;;5003957;28;20149;-64
2024/04/03 06:20:33;;;;;;;15.60;3.70;;;8.70;99.90;;;;;;5001786;28;20141;-63
2024/04/03 06:22:59;;;;;;;19.38;4.15;;;8.70;99.90;;;;;;5004329;28;20523;-64
2024/04/03 06:25:25;;;;;;;15.18;3.67;;;8.70;99.90;;;;;;4996350;28;20467;-63
2024/04/03 06:27:53;;;;;;;20.92;3.85;;;8.70;99.90;;;;;;4994697;28;20049;-64
2024/04/03 06:30:19;;;;;;;16.58;4.03;;;8.70;99.90;;;;;;4991563;28;20100;-64
2024/04/03 06:32:45;;;;;;;9.13;3.25;;;8.80;99.90;;;;;;4999412;28;20088;-64
2024/04/03 06:35:11;;;;;;;20.48;4.13;;;8.80;99.90;;;;;;4994323;28;20050;-63
2024/04/03 06:37:37;;;;;;;13.07;3.67;;;8.80;99.90;;;;;;4994039;28;20443;-64
2024/04/03 06:40:03;;;;;;;17.77;3.85;;;8.70;99.90;;;;;;4994185;28;20049;-64
2024/04/03 06:42:29;;;;;;;12.77;3.88;;;8.80;99.90;;;;;;4993154;28;20073;-64
2024/04/03 06:44:55;;;;;;;12.90;3.55;;;8.80;99.90;;;;;;4994347;28;20559;-64
2024/04/03 06:47:22;;;;;;;13.02;3.92;;;8.80;99.90;;;;;;4988549;28;20046;-63
2024/04/03 06:49:51;;;;;;;14.40;4.00;;;8.80;99.90;;;;;;4990665;28;20045;-63
2024/04/03 06:52:17;;;;;;;12.93;4.05;;;8.80;99.90;;;;;;4993398;28;20054;-63
2024/04/03 06:54:43;;;;;;;14.27;4.25;;;8.90;99.90;;;;;;4995924;28;20422;-64
2024/04/03 06:57:08;;;;;;;14.60;3.90;;;8.90;99.90;;;;;;4991857;28;20054;-63
2024/04/03 06:59:34;;;;;;;11.38;4.45;;;9.00;99.90;;;;;;4988401;28;20149;-63
2024/04/03 07:02:00;;;;;;;10.40;3.63;;;9.00;99.90;;;;;;4999869;28;20069;-64
2024/04/03 07:04:28;;;;;;;13.55;4.05;;;9.00;99.90;;;;;;5000585;28;20088;-64
2024/04/03 07:06:55;;;;;;;17.10;4.47;;;9.10;99.90;;;;;;4993667;28;20057;-64
2024/04/03 07:09:20;;;;;;;15.27;4.75;;;9.10;99.90;;;;;;4989607;28;20496;-64
2024/04/03 07:11:46;;;;;;;5.35;3.63;;;9.00;99.90;;;;;;4998524;28;20328;-63
2024/04/03 07:14:12;;;;;;;11.77;4.20;;;9.20;99.90;;;;;;4983954;28;20352;-64
2024/04/03 07:16:38;;;;;;;13.75;4.68;;;9.10;99.90;;;;;;4994647;28;20033;-64
2024/04/03 07:19:03;;;;;;;9.48;4.63;;;9.20;99.90;;;;;;4989972;28;20050;-64
2024/04/03 07:21:29;;;;;;;13.75;4.85;;;9.30;99.90;;;;;;4992872;28;20073;-63
2024/04/03 07:23:55;;;;;;;11.23;5.03;;;9.30;99.90;;;;;;4998123;28;20077;-64
2024/04/03 07:26:23;;;;;;;11.73;4.72;;;9.30;99.90;;;;;;4987590;28;20066;-63
2024/04/03 07:28:49;;;;;;;11.75;4.90;;;9.30;99.90;;;;;;4992169;28;20042;-64
2024/04/03 07:31:15;;;;;;;9.88;4.72;;;9.30;99.90;;;;;;4995492;28;20444;-64
2024/04/03 07:33:41;;;;;;;9.90;4.55;;;9.30;99.90;;;;;;4995534;28;20057;-63
2024/04/03 07:36:07;;;;;;;11.73;5.00;;;9.30;99.90;;;;;;4995906;28;20043;-64
2024/04/03 07:38:33;;;;;;;9.73;4.85;;;9.20;99.90;;;;;;4996238;28;20067;-64
2024/04/03 07:40:59;;;;;;;16.63;5.30;;;9.30;99.90;;;;;;4999525;28;20111;-64
2024/04/03 07:43:25;;;;;;;8.40;5.63;;;9.20;99.90;;;;;;4999015;28;20291;-64
2024/04/03 07:46:00;;;;;;;11.07;4.95;;;9.30;99.90;;;;;;4997991;28;20062;-64
2024/04/03 07:48:25;;;;;;;9.20;5.18;;;9.30;99.90;;;;;;5000283;28;20050;-64
2024/04/03 07:51:01;;;;;;;13.30;5.57;;;9.30;99.90;;;;;;5001405;28;20278;-64
2024/04/03 07:53:27;;;;;;;7.28;4.97;;;9.20;99.90;;;;;;4998030;28;20506;-63
2024/04/03 07:55:53;;;;;;;8.85;5.35;;;9.30;99.90;;;;;;4999468;28;20065;-64
2024/04/03 07:58:19;;;;;;;8.38;5.45;;;9.30;99.90;;;;;;5002386;28;20057;-64
2024/04/03 08:00:45;;;;;;;9.98;5.22;;;9.20;99.90;;;;;;4999074;28;20038;-64
2024/04/03 08:03:11;;;;;;;11.98;5.38;;;9.30;99.90;;;;;;5000709;28;20048;-64
2024/04/03 08:05:37;;;;;;;11.98;5.38;;;9.40;99.90;;;;;;4994114;28;20046;-64
2024/04/03 08:08:03;;;;;;;9.40;5.53;;;9.30;99.90;;;;;;5002519;28;20046;-64
2024/04/03 08:10:29;;;;;;;9.10;5.60;;;9.30;99.90;;;;;;4984190;28;20042;-64
2024/04/03 08:12:55;;;;;;;11.52;4.57;;;9.30;99.90;;;;;;4988369;28;20045;-64
2024/04/03 08:15:21;;;;;;;9.85;5.55;;;9.30;99.90;;;;;;4995426;28;20152;-64
2024/04/03 08:17:46;;;;;;;7.95;4.93;;;9.30;99.90;;;;;;4994444;28;20116;-64
2024/04/03 08:20:12;;;;;;;7.72;4.78;;;9.40;99.90;;;;;;4999780;28;20042;-64
2024/04/03 08:22:38;;;;;;;9.02;5.13;;;9.30;99.90;;;;;;4993149;28;20070;-64
2024/04/03 08:25:04;;;;;;;10.45;5.07;;;9.40;99.90;;;;;;5001246;28;20133;-64
2024/04/03 08:27:33;;;;;;;8.45;5.00;;;9.40;99.90;;;;;;4989868;28;20108;-64
2024/04/03 08:30:00;;;;;;;8.85;4.57;;;9.50;99.90;;;;;;4989690;28;20038;-64
2024/04/03 08:32:26;;;;;;;11.40;4.72;;;9.50;99.90;;;;;;4997668;28;20523;-64
2024/04/03 08:34:52;;;;;;;6.30;4.25;;;9.70;99.90;;;;;;4995652;28;20129;-64
2024/04/03 08:37:19;;;;;;;6.93;4.35;;;9.70;99.90;;;;;;4993770;28;20046;-64
2024/04/03 08:39:46;;;;;;;7.78;5.07;;;9.70;99.90;;;;;;4997934;28;20354;-64
2024/04/03 08:42:12;;;;;;;12.95;5.07;;;9.90;99.90;;;;;;4999148;28;20078;-64
2024/04/03 08:44:38;;;;;;;12.35;5.03;;;9.90;99.90;;;;;;4994957;28;20042;-63
2024/04/03 08:47:04;;;;;;;8.25;4.47;;;10.00;99.90;;;;;;4995722;28;20046;-64
2024/04/03 08:49:36;;;;;;;4.93;4.47;;;10.00;99.90;;;;;;4990939;28;20476;-64
2024/04/03 08:52:06;;;;;;;8.50;4.93;;;10.10;99.90;;;;;;5000373;28;20038;-64
2024/04/03 08:54:32;;;;;;;;;;;10.10;99.90;;;;;;5001637;28;20068;-64
2024/04/03 08:57:01;;;;;;;7.78;4.82;;;10.20;99.90;;;;;;5001326;28;19925;-64
2024/04/03 08:59:27;;;;;;;7.25;4.40;;;10.20;99.90;;;;;;5000909;28;20048;-64
2024/04/03 09:01:53;;;;;;;9.25;4.70;;;10.20;99.90;;;;;;4999189;28;20037;-64
2024/04/03 09:04:21;;;;;;;5.70;4.15;;;10.20;99.90;;;;;;4987709;28;20415;-64
2024/04/03 09:06:47;;;;;;;5.72;4.50;;;10.30;99.90;;;;;;4997166;28;20046;-64
2024/04/03 09:09:26;;;;;;;7.47;3.97;;;10.40;99.90;;;;;;4988389;28;20050;-64
2024/04/03 09:12:01;;;;;;;7.10;4.43;;;10.30;99.90;;;;;;4992854;28;20053;-64
2024/04/03 09:14:28;;;;;;;4.47;4.05;;;10.30;99.90;;;;;;4996555;28;20053;-63
2024/04/03 09:17:01;;;;;;;5.45;3.88;;;10.30;99.90;;;;;;4999439;28;20054;-64
2024/04/03 09:19:28;;;;;;;5.18;3.53;;;10.30;99.90;;;;;;5000561;28;20050;-64
2024/04/03 09:21:54;;;;;;;6.28;3.45;;;10.40;99.90;;;;;;4995812;28;20081;-64
2024/04/03 09:24:20;;;;;;;4.07;3.20;;;10.40;99.90;;;;;;5000019;28;20057;-64
2024/04/03 09:26:51;;;;;;;4.13;3.25;;;10.50;99.90;;;;;;4997810;28;20427;-64
2024/04/03 09:29:18;;;;;;;2.80;2.60;;;10.50;99.90;;;;;;5001661;28;20192;-64
2024/04/03 09:31:45;;;;;;;3.00;2.58;;;10.50;99.90;;;;;;5002573;28;20459;-64
2024/04/03 09:34:11;;;;;;;4.63;2.55;;;10.60;99.90;;;;;;4997782;28;20041;-64
2024/04/03 09:36:38;;;;;;;3.10;2.65;;;10.60;99.90;;;;;;4990883;28;20054;-64
2024/04/03 09:39:04;;;;;;;3.63;2.65;;;10.80;99.90;;;;;;5004276;28;20048;-64
2024/04/03 09:41:32;;;;;;;4.15;2.72;;;10.90;99.90;;;;;;5002799;28;20049;-64
2024/04/03 09:44:03;;;;;;;2.75;2.55;;;10.90;99.90;;;;;;4991282;28;20578;-64
2024/04/03 09:47:11;;;;;;;2.65;2.45;;;11.00;99.90;;;;;;5002305;28;20050;-64
2024/04/03 09:49:51;;;;;;;2.30;2.17;;;11.00;99.90;;;;;;4994171;28;20081;-64
2024/04/03 09:52:18;;;;;;;3.42;2.72;;;11.00;99.90;;;;;;4997628;28;20046;-64
2024/04/03 09:54:45;;;;;;;2.83;2.63;;;11.10;99.90;;;;;;4997965;28;20490;-64
2024/04/03 09:57:11;;;;;;;5.43;2.30;;;11.20;99.90;;;;;;4992268;28;20549;-64
2024/04/03 09:59:38;;;;;;;4.88;2.50;;;11.30;99.90;;;;;;4991629;28;20137;-64
2024/04/03 10:02:04;;;;;;;2.20;1.90;;;11.40;99.90;;;;;;4994312;28;20499;-64
2024/04/03 10:04:34;;;;;;;3.92;2.22;;;11.40;99.90;;;;;;4989604;28;20046;-64
2024/04/03 10:07:02;;;;;;;2.72;2.30;;;11.50;99.90;;;;;;4990577;28;20464;-64
2024/04/03 10:09:27;;;;;;;2.10;1.90;;;11.60;99.90;;;;;;4993526;28;20484;-64
2024/04/03 10:11:56;;;;;;;4.68;2.45;;;11.50;99.90;;;;;;4993570;28;20052;-64
2024/04/03 10:14:30;;;;;;;3.55;1.85;;;11.60;99.90;;;;;;4998399;28;20057;-64
2024/04/03 10:16:56;;;;;;;2.17;1.98;;;11.60;99.90;;;;;;4989472;28;20049;-64
2024/04/03 10:19:24;;;;;;;5.82;2.28;;;11.60;99.90;;;;;;5003963;28;20046;-64
2024/04/03 10:21:50;;;;;;;3.88;2.47;;;11.60;99.90;;;;;;4987297;28;20571;-64
2024/04/03 10:24:19;;;;;;;3.90;1.92;;;11.60;99.90;;;;;;4998871;28;20050;-64
2024/04/03 10:26:46;;;;;;;3.05;2.47;;;11.60;99.90;;;;;;4988230;28;20050;-64
2024/04/03 10:29:13;;;;;;;4.80;2.10;;;11.60;99.90;;;;;;4995080;28;20149;-64
2024/04/03 10:31:38;;;;;;;2.40;2.20;;;11.60;99.90;;;;;;4988052;28;20129;-64
2024/04/03 10:34:04;;;;;;;2.25;1.83;;;11.50;99.90;;;;;;5001379;28;20124;-64
2024/04/03 10:36:31;;;;;;;1.58;1.35;;;11.40;99.90;;;;;;4986642;28;20442;-64
2024/04/03 10:38:56;;;;;;;2.15;2.00;;;11.40;99.90;;;;;;5002419;28;20483;-63
2024/04/03 10:41:22;;;;;;;2.55;1.70;;;11.40;99.90;;;;;;4992926;28;20046;-64
2024/04/03 10:43:49;;;;;;;1.95;1.48;;;11.50;99.90;;;;;;4989325;28;20050;-64
2024/04/03 10:46:27;;;;;;;1.70;1.60;;;11.50;99.90;;;;;;4993793;28;20057;-64
2024/04/03 10:48:55;;;;;;;2.75;1.73;;;11.60;99.90;;;;;;4996197;28;20053;-64
2024/04/03 10:51:21;;;;;;;5.90;2.08;;;11.60;99.90;;;;;;4985366;28;20590;-64
2024/04/03 10:53:48;;;;;;;2.08;1.45;;;11.70;99.90;;;;;;5000966;28;20117;-64
2024/04/03 10:56:18;;;;;;;1.10;1.00;;;11.80;99.90;;;;;;4994751;28;20050;-65
2024/04/03 10:58:44;;;;;;;1.10;1.10;;;11.70;99.90;;;;;;4996431;28;20042;-64
2024/04/03 11:01:14;;;;;;;0.90;0.90;;;11.70;99.90;;;;;;5000875;28;20460;-64
2024/04/03 11:03:41;;;;;;;1.52;1.20;;;11.70;99.90;;;;;;4994022;28;20038;-64
2024/04/03 11:06:11;;;;;;;1.75;1.00;;;11.60;99.90;;;;;;4998265;28;20093;-64
2024/04/03 11:08:37;;;;;;;0.88;0.88;;;11.50;99.90;;;;;;4993162;28;20543;-64
2024/04/03 11:11:03;;;;;;;3.47;0.90;;;11.60;99.90;;;;;;4995120;28;20609;-64
2024/04/03 11:13:29;;;;;;;1.25;1.15;;;11.50;99.90;;;;;;4997458;28;20054;-63
2024/04/03 11:15:56;;;;;;;3.63;1.17;;;11.60;99.90;;;;;;4981971;28;20042;-64
2024/04/03 11:18:22;;;;;;;1.60;1.20;;;11.50;99.90;;;;;;4989071;28;20124;-64
2024/04/03 11:20:48;;;;;;;2.03;1.23;;;11.40;99.90;;;;;;4987014;28;20050;-64
2024/04/03 11:23:14;;;;;;;1.88;1.10;;;11.40;99.90;;;;;;4992293;28;20168;-64
2024/04/03 11:25:40;;;;;;;1.80;1.70;;;11.50;99.90;;;;;;5000992;28;20149;-64
2024/04/03 11:28:06;;;;;;;1.35;1.25;;;11.60;99.90;;;;;;4992464;28;20115;-64
2024/04/03 11:30:33;;;;;;;0.95;0.95;;;11.70;99.90;;;;;;4995797;28;20049;-64
2024/04/03 11:32:58;;;;;;;4.40;1.00;;;11.80;99.90;;;;;;4989496;28;20124;-64
2024/04/03 11:35:25;;;;;;;1.10;1.10;;;12.00;99.90;;;;;;4996163;28;20141;-64
2024/04/03 11:37:51;;;;;;;2.45;1.20;;;12.30;99.90;;;;;;4993549;28;20103;-63
2024/04/03 11:40:17;;;;;;;1.63;1.50;;;12.40;99.90;;;;;;4992563;28;20065;-63
2024/04/03 11:42:43;;;;;;;1.27;1.17;;;12.70;99.90;;;;;;4984323;28;20054;-64
2024/04/03 11:45:09;;;;;;;2.17;1.65;;;12.80;99.90;;;;;;4984719;28;20049;-63
2024/04/03 11:47:35;;;;;;;1.85;1.40;;;13.00;99.90;;;;;;4988981;28;20054;-64
2024/04/03 11:50:03;;;;;;;2.47;1.67;;;13.10;99.90;;;;;;4989254;28;20072;-63
2024/04/03 11:52:28;;;;;;;5.53;2.35;;;13.10;99.90;;;;;;4994621;28;20093;-63
2024/04/03 11:54:55;;;;;;;3.22;2.92;;;13.00;99.90;;;;;;4994581;28;20041;-63
2024/04/03 11:57:21;;;;;;;2.67;2.47;;;12.90;99.90;;;;;;4988380;28;20586;-64
2024/04/03 11:59:51;;;;;;;5.78;3.22;;;12.80;99.90;;;;;;4998750;28;20042;-63
2024/04/03 12:02:17;;;;;;;3.47;3.17;;;12.60;99.90;;;;;;4997534;28;20163;-63
2024/04/03 12:04:43;;;;;;;5.78;3.45;;;12.60;99.90;;;;;;4997343;28;20496;-63
2024/04/03 12:07:13;;;;;;;7.07;3.42;;;12.60;99.90;;;;;;4996930;28;20052;-63
2024/04/03 12:09:40;;;;;;;7.10;3.22;;;12.50;99.90;;;;;;4994422;28;20460;-63
2024/04/03 12:12:07;;;;;;;4.43;2.83;;;12.40;99.90;;;;;;4995930;28;20499;-63
2024/04/03 12:14:32;;;;;;;5.15;2.50;;;12.30;99.90;;;;;;4991009;28;20377;-63
2024/04/03 12:17:02;;;;;;;2.30;2.10;;;12.20;99.90;;;;;;4996880;28;20053;-64
2024/04/03 12:22:14;;;;;;;2.28;2.08;;;12.10;99.90;;;;;;5000071;28;20050;-63
2024/04/03 12:24:41;;;;;;;1.73;1.63;;;12.00;99.90;;;;;;5000912;28;20053;-63
2024/04/03 12:27:07;;;;;;;2.60;1.50;;;11.90;99.90;;;;;;4996824;28;20344;-63
2024/04/03 12:29:33;;;;;;;3.30;1.65;;;11.90;99.90;;;;;;4992116;28;20076;-63
2024/04/03 12:31:59;;;;;;;2.67;1.85;;;11.90;99.90;;;;;;4993552;28;20091;-63
2024/04/03 12:34:25;;;;;;;4.28;2.03;;;12.00;99.90;;;;;;4999332;28;20084;-63
2024/04/03 12:36:50;;;;;;;7.88;2.53;;;12.10;99.90;;;;;;4986513;28;20053;-64
2024/04/03 12:39:16;;;;;;;3.75;1.98;;;12.20;99.90;;;;;;5005806;28;20045;-64
2024/04/03 12:41:42;;;;;;;3.20;2.47;;;12.30;99.90;;;;;;4994367;28;20045;-63
2024/04/03 12:44:08;;;;;;;6.78;2.42;;;12.50;99.90;;;;;;4995470;28;20283;-63
2024/04/03 12:46:34;;;;;;;5.10;2.35;;;12.60;99.90;;;;;;4990135;28;20053;-63
2024/04/03 12:48:59;;;;;;;5.82;2.17;;;12.60;99.90;;;;;;4993428;28;20073;-63
2024/04/03 12:51:25;;;;;;;5.65;2.45;;;12.70;99.90;;;;;;4997110;28;20129;-63